Time;durP1;ratioP1;P1;durP2;ratioP2;P2;SDS_P1;SDS_P2;PMS_P1;PMS_P2;Temp;Humidity;BMP_temperature;BMP_pressure;BME280_temperature;BME280_humidity;BME280_pressure;Samples;Min_cycle;Max_cycle;Signal;HPM_P1;HPM_P2
2023/01/21 00:00:57;;;;;;;52.25;19.88;;;-0.40;99.90;;;;;;4754748;30;20055;-72
2023/01/21 00:03:23;;;;;;;48.85;19.65;;;-0.50;99.90;;;;;;4754633;30;20106;-72
2023/01/21 00:05:51;;;;;;;46.97;16.98;;;-0.40;99.90;;;;;;4770729;30;20130;-72
2023/01/21 00:08:17;;;;;;;45.28;17.90;;;-0.40;99.90;;;;;;4770709;30;20135;-72
2023/01/21 00:10:43;;;;;;;44.70;17.45;;;-0.40;99.90;;;;;;4770511;30;20538;-72
2023/01/21 00:13:11;;;;;;;53.78;19.45;;;-0.50;99.90;;;;;;4754516;30;20056;-72
2023/01/21 00:15:37;;;;;;;47.08;18.10;;;-0.40;99.90;;;;;;4754491;30;20139;-72
2023/01/21 00:18:02;;;;;;;48.00;19.08;;;-0.50;99.90;;;;;;4754889;30;20059;-72
2023/01/21 00:20:28;;;;;;;57.05;19.33;;;-0.40;99.90;;;;;;4754539;30;20048;-72
2023/01/21 00:22:54;;;;;;;55.72;20.23;;;-0.30;99.90;;;;;;4754792;30;20044;-72
2023/01/21 00:25:20;;;;;;;46.30;19.33;;;-0.40;99.90;;;;;;4753809;30;20138;-72
2023/01/21 00:27:45;;;;;;;57.08;19.13;;;-0.20;99.90;;;;;;4754743;30;20059;-72
2023/01/21 00:30:11;;;;;;;50.28;20.13;;;-0.30;99.90;;;;;;4754519;30;20423;-72
2023/01/21 00:32:37;;;;;;;46.35;18.95;;;-0.20;99.90;;;;;;4770397;30;20044;-72
2023/01/21 00:35:04;;;;;;;51.03;19.48;;;-0.30;99.90;;;;;;4754500;30;20052;-72
2023/01/21 00:37:30;;;;;;;51.00;19.77;;;-0.30;99.90;;;;;;4754408;30;20089;-72
2023/01/21 00:39:56;;;;;;;47.97;18.08;;;-0.20;99.90;;;;;;4755912;30;20138;-72
2023/01/21 00:42:21;;;;;;;49.28;17.65;;;-0.30;99.90;;;;;;4758002;30;20060;-72
2023/01/21 00:44:50;;;;;;;50.78;18.55;;;-0.20;99.90;;;;;;4773814;30;20405;-72
2023/01/21 00:47:15;;;;;;;45.72;17.58;;;-0.20;99.90;;;;;;4757885;30;20048;-72
2023/01/21 00:49:41;;;;;;;51.15;18.98;;;-0.10;99.90;;;;;;4757829;30;20053;-72
2023/01/21 00:52:06;;;;;;;45.03;17.55;;;-0.30;99.90;;;;;;4773841;30;20147;-72
2023/01/21 00:54:32;;;;;;;59.17;19.42;;;-0.20;99.90;;;;;;4757877;30;20056;-72
2023/01/21 00:57:01;;;;;;;50.42;18.88;;;-0.20;99.90;;;;;;4757893;30;20394;-72
2023/01/21 00:59:27;;;;;;;52.20;17.92;;;-0.10;99.90;;;;;;4757597;30;20056;-72
2023/01/21 01:01:53;;;;;;;42.22;15.93;;;-0.10;99.90;;;;;;4757812;30;20046;-72
2023/01/21 01:04:19;;;;;;;51.63;19.17;;;-0.10;99.90;;;;;;4757795;30;20409;-72
2023/01/21 01:06:45;;;;;;;50.40;18.63;;;-0.10;99.90;;;;;;4757855;30;20559;-72
2023/01/21 01:09:11;;;;;;;47.67;18.42;;;-0.20;99.90;;;;;;4757431;30;20135;-72
2023/01/21 01:11:37;;;;;;;48.35;17.55;;;-0.20;99.90;;;;;;4757353;30;20447;-72
2023/01/21 01:14:06;;;;;;;44.90;16.08;;;-0.20;99.90;;;;;;4756995;30;20060;-72
2023/01/21 01:16:31;;;;;;;45.63;16.73;;;-0.10;99.90;;;;;;4757428;30;20138;-72
2023/01/21 01:18:58;;;;;;;47.38;19.02;;;-0.20;99.90;;;;;;4757126;30;20044;-72
2023/01/21 01:21:23;;;;;;;47.05;15.93;;;-0.20;99.90;;;;;;4757174;30;20059;-72
2023/01/21 01:23:53;;;;;;;48.95;17.40;;;-0.10;99.90;;;;;;4757184;30;20059;-72
2023/01/21 01:26:21;;;;;;;50.78;17.27;;;-0.20;99.90;;;;;;4757174;30;20063;-72
2023/01/21 01:28:47;;;;;;;53.97;18.40;;;-0.20;99.90;;;;;;4757316;30;20405;-72
2023/01/21 01:31:15;;;;;;;49.08;17.70;;;-0.30;99.90;;;;;;4756954;30;20079;-72
2023/01/21 01:33:42;;;;;;;49.80;17.85;;;-0.10;99.90;;;;;;4757122;30;20048;-72
2023/01/21 01:36:12;;;;;;;52.17;18.52;;;-0.30;99.90;;;;;;4757156;30;20082;-72
2023/01/21 01:38:38;;;;;;;49.88;18.48;;;-0.40;99.90;;;;;;4773012;30;20051;-72
2023/01/21 01:41:04;;;;;;;44.60;17.08;;;-0.30;99.90;;;;;;4756774;30;20089;-72
2023/01/21 01:44:02;;;;;;;44.10;16.38;;;-0.30;99.90;;;;;;4756701;30;20066;-72
2023/01/21 01:46:30;;;;;;;51.28;19.30;;;-0.30;99.90;;;;;;4756678;30;20055;-72
2023/01/21 01:49:18;;;;;;;48.20;17.90;;;-0.30;99.90;;;;;;4756804;30;20508;-72
2023/01/21 01:51:50;;;;;;;44.58;17.88;;;-0.40;99.90;;;;;;4756614;30;20134;-72
2023/01/21 01:54:22;;;;;;;47.97;17.20;;;-0.50;99.90;;;;;;4756848;30;20514;-72
2023/01/21 01:56:52;;;;;;;44.75;18.27;;;-0.30;99.90;;;;;;4756891;30;20044;-72
2023/01/21 01:59:18;;;;;;;47.72;17.58;;;-0.40;99.90;;;;;;4756619;30;20447;-72
2023/01/21 02:01:44;;;;;;;49.10;18.02;;;-0.50;99.90;;;;;;4756624;30;20086;-72
2023/01/21 02:04:16;;;;;;;45.83;16.20;;;-0.50;99.90;;;;;;4756655;30;20060;-72
2023/01/21 02:06:43;;;;;;;47.00;17.23;;;-0.50;99.90;;;;;;4756542;30;20060;-72
2023/01/21 02:09:08;;;;;;;43.30;16.38;;;-0.50;99.90;;;;;;4756728;30;20368;-73
2023/01/21 02:11:35;;;;;;;47.40;17.75;;;-0.40;99.90;;;;;;4756623;30;20465;-72
2023/01/21 02:14:02;;;;;;;43.63;14.90;;;-0.50;99.90;;;;;;4756318;30;20048;-72
2023/01/21 02:16:45;;;;;;;50.00;17.45;;;-0.50;99.90;;;;;;4772508;30;20102;-72
2023/01/21 02:19:31;;;;;;;44.60;16.40;;;-0.50;99.90;;;;;;4756739;30;20382;-72
2023/01/21 02:22:21;;;;;;;40.40;14.20;;;-0.50;99.90;;;;;;4756246;30;20056;-72
2023/01/21 02:25:18;;;;;;;49.28;17.83;;;-0.50;99.90;;;;;;4756218;30;20492;-72
2023/01/21 02:28:20;;;;;;;47.45;16.83;;;-0.40;99.90;;;;;;4733373;30;20071;-72
2023/01/21 02:31:20;;;;;;;46.30;17.33;;;-0.50;99.90;;;;;;4756000;30;20155;-72
2023/01/21 02:33:55;;;;;;;41.75;16.40;;;-0.40;99.90;;;;;;4756183;30;20059;-72
2023/01/21 02:36:56;;;;;;;49.55;17.63;;;-0.40;99.90;;;;;;4756332;30;20116;-72
2023/01/21 02:39:50;;;;;;;46.95;17.83;;;-0.30;99.90;;;;;;4755975;30;20158;-72
2023/01/21 02:42:31;;;;;;;48.47;16.52;;;-0.40;99.90;;;;;;4756258;30;20066;-72
2023/01/21 02:45:14;;;;;;;45.17;15.65;;;-0.30;99.90;;;;;;4755816;30;20060;-72
2023/01/21 02:48:04;;;;;;;42.88;16.05;;;-0.40;99.90;;;;;;4755880;30;20056;-72
2023/01/21 02:50:39;;;;;;;48.30;16.65;;;-0.30;99.90;;;;;;4756105;30;20083;-72
2023/01/21 02:53:04;;;;;;;49.85;18.35;;;-0.20;99.90;;;;;;4755917;30;20146;-72
2023/01/21 02:55:37;;;;;;;48.10;16.80;;;-0.40;99.90;;;;;;4755551;30;20067;-72
2023/01/21 02:58:16;;;;;;;53.20;18.55;;;-0.30;99.90;;;;;;4755684;30;20064;-72
2023/01/21 03:01:01;;;;;;;51.35;18.30;;;-0.30;99.90;;;;;;4755912;30;20059;-72
2023/01/21 03:03:53;;;;;;;56.53;19.65;;;-0.20;99.90;;;;;;4755216;30;20489;-72
2023/01/21 03:06:36;;;;;;;58.25;19.75;;;-0.10;99.90;;;;;;4755342;30;20382;-72
2023/01/21 03:09:16;;;;;;;61.70;21.38;;;-0.10;99.90;;;;;;4755495;30;20048;-72
2023/01/21 03:11:50;;;;;;;61.90;23.08;;;-0.10;99.90;;;;;;4755751;30;20043;-72
2023/01/21 03:17:43;;;;;;;71.03;23.55;;;-0.10;99.90;;;;;;4755636;30;20082;-72
2023/01/21 03:20:27;;;;;;;62.80;22.42;;;-0.10;99.90;;;;;;4755458;30;20249;-72
2023/01/21 03:23:04;;;;;;;59.00;21.20;;;-0.10;99.90;;;;;;4755417;30;20504;-72
2023/01/21 03:25:33;;;;;;;68.43;22.92;;;-0.10;99.90;;;;;;4755165;30;20056;-72
2023/01/21 03:28:02;;;;;;;62.65;22.63;;;-0.10;99.90;;;;;;4755195;30;20454;-72
2023/01/21 03:30:29;;;;;;;60.78;23.60;;;-0.20;99.90;;;;;;4771156;30;20052;-72
2023/01/21 03:32:57;;;;;;;61.00;21.10;;;-0.20;99.90;;;;;;4755290;30;20055;-72
2023/01/21 03:35:31;;;;;;;65.85;21.58;;;-0.20;99.90;;;;;;4755047;30;20062;-72
2023/01/21 03:38:08;;;;;;;63.10;22.95;;;-0.30;99.90;;;;;;4755281;30;20066;-72
2023/01/21 03:40:55;;;;;;;65.10;21.25;;;-0.30;99.90;;;;;;4754840;30;20060;-72
2023/01/21 03:43:21;;;;;;;61.33;22.55;;;-0.40;99.90;;;;;;4754776;30;20091;-72
2023/01/21 03:46:12;;;;;;;67.60;24.02;;;-0.30;99.90;;;;;;4754829;30;20079;-72
2023/01/21 03:48:45;;;;;;;62.20;23.13;;;-0.30;99.90;;;;;;4754949;30;20090;-72
2023/01/21 03:51:18;;;;;;;75.90;26.15;;;-0.40;99.90;;;;;;4755212;30;20078;-72
2023/01/21 03:53:44;;;;;;;61.10;22.90;;;-0.40;99.90;;;;;;4754776;30;20117;-72
2023/01/21 03:56:10;;;;;;;66.88;24.30;;;-0.50;99.90;;;;;;4754939;30;20059;-72
2023/01/21 03:58:35;;;;;;;65.57;23.63;;;-0.30;99.90;;;;;;4754776;30;20044;-72
2023/01/21 04:01:01;;;;;;;58.95;21.75;;;-0.50;99.90;;;;;;4754778;30;20087;-72
2023/01/21 04:03:26;;;;;;;63.20;22.30;;;-0.40;99.90;;;;;;4754787;30;20090;-72
2023/01/21 04:05:52;;;;;;;61.13;21.83;;;-0.20;99.90;;;;;;4754479;30;20139;-72
2023/01/21 04:08:18;;;;;;;67.35;24.38;;;-0.40;99.90;;;;;;4754587;30;20058;-72
2023/01/21 04:10:43;;;;;;;64.63;20.35;;;-0.10;99.90;;;;;;4754843;30;20058;-72
2023/01/21 04:13:12;;;;;;;74.05;23.63;;;-0.10;99.90;;;;;;4754493;30;20117;-72
2023/01/21 04:15:37;;;;;;;68.53;23.40;;;-0.20;99.90;;;;;;4754411;30;20063;-72
2023/01/21 04:18:03;;;;;;;73.50;21.98;;;-0.20;99.90;;;;;;4754637;30;20600;-72
2023/01/21 04:20:29;;;;;;;64.75;22.15;;;-0.20;99.90;;;;;;4754923;30;20064;-73
2023/01/21 04:22:54;;;;;;;64.07;23.73;;;-0.20;99.90;;;;;;4754671;30;20052;-72
2023/01/21 04:25:23;;;;;;;62.70;22.38;;;-0.20;99.90;;;;;;4754248;30;20043;-72
2023/01/21 04:27:48;;;;;;;65.65;22.10;;;-0.20;99.90;;;;;;4754718;30;20052;-72
2023/01/21 04:30:14;;;;;;;65.88;23.50;;;-0.10;99.90;;;;;;4770568;30;20055;-72
2023/01/21 04:32:43;;;;;;;67.90;23.55;;;-0.30;99.90;;;;;;4754670;30;20062;-72
2023/01/21 04:35:11;;;;;;;66.72;21.92;;;-0.20;99.90;;;;;;4754401;30;20048;-72
2023/01/21 04:37:37;;;;;;;60.15;21.30;;;-0.10;99.90;;;;;;4754399;30;20116;-72
2023/01/21 04:40:03;;;;;;;63.03;22.58;;;-0.30;99.90;;;;;;4754246;30;20160;-72
2023/01/21 04:42:28;;;;;;;60.90;22.55;;;-0.30;99.90;;;;;;4754377;30;20070;-72
2023/01/21 04:44:54;;;;;;;60.45;21.02;;;-0.20;99.90;;;;;;4754339;30;20051;-72
2023/01/21 04:47:19;;;;;;;65.90;21.15;;;-0.30;99.90;;;;;;4754450;30;20055;-72
2023/01/21 04:49:47;;;;;;;60.55;22.17;;;-0.50;99.90;;;;;;4754480;30;20051;-72
2023/01/21 04:52:13;;;;;;;64.82;23.33;;;-0.40;99.90;;;;;;4770149;30;20056;-73
2023/01/21 04:54:38;;;;;;;58.10;20.77;;;-0.60;99.90;;;;;;4754486;30;20050;-72
2023/01/21 04:57:04;;;;;;;58.75;20.75;;;-0.60;99.90;;;;;;4754283;30;20481;-72
2023/01/21 04:59:30;;;;;;;65.28;20.75;;;-0.40;99.90;;;;;;4754273;30;20419;-72
2023/01/21 05:01:58;;;;;;;68.55;23.27;;;-0.60;99.90;;;;;;4754231;30;20048;-72
2023/01/21 05:04:24;;;;;;;63.08;19.90;;;-0.50;99.90;;;;;;4754125;30;20105;-72
2023/01/21 05:06:50;;;;;;;69.80;22.27;;;-0.60;99.90;;;;;;4754079;30;20113;-72
2023/01/21 05:09:18;;;;;;;64.38;21.33;;;-0.40;99.90;;;;;;4754069;30;20122;-72
2023/01/21 05:11:44;;;;;;;57.22;21.23;;;-0.60;99.90;;;;;;4754112;30;20055;-72
2023/01/21 05:14:09;;;;;;;62.25;21.95;;;-0.60;99.90;;;;;;4754157;30;20058;-72
2023/01/21 05:16:35;;;;;;;61.72;22.02;;;-0.50;99.90;;;;;;4754392;30;20056;-72
2023/01/21 05:19:01;;;;;;;59.58;21.55;;;-0.60;99.90;;;;;;4754280;30;20392;-72
2023/01/21 05:21:26;;;;;;;57.38;21.02;;;-0.50;99.90;;;;;;4754282;30;20405;-72
2023/01/21 05:23:54;;;;;;;60.95;20.38;;;-0.50;99.90;;;;;;4770012;30;20055;-72
2023/01/21 05:26:20;;;;;;;65.07;22.38;;;-0.60;99.90;;;;;;4756130;30;20089;-72
2023/01/21 05:28:46;;;;;;;65.25;23.92;;;-0.60;99.90;;;;;;4757287;30;20097;-72
2023/01/21 05:31:11;;;;;;;64.20;23.73;;;-0.50;99.90;;;;;;4757217;30;20051;-72
2023/01/21 05:33:37;;;;;;;76.45;25.33;;;-0.60;99.90;;;;;;4757127;30;20051;-72
2023/01/21 05:36:03;;;;;;;59.28;22.05;;;-0.60;99.90;;;;;;4757249;30;20066;-72
2023/01/21 05:38:29;;;;;;;65.32;23.08;;;-0.50;99.90;;;;;;4756882;30;20083;-73
2023/01/21 05:40:59;;;;;;;72.70;22.50;;;-0.60;99.90;;;;;;4756932;30;20565;-72
2023/01/21 05:43:26;;;;;;;74.22;23.77;;;-0.60;99.90;;;;;;4757193;30;20059;-73
2023/01/21 05:45:53;;;;;;;67.78;23.25;;;-0.60;99.90;;;;;;4756876;30;20091;-72
2023/01/21 05:48:18;;;;;;;63.33;23.25;;;-0.50;99.90;;;;;;4756723;30;20122;-72
2023/01/21 05:50:44;;;;;;;74.03;23.17;;;-0.50;99.90;;;;;;4773245;30;20139;-73
2023/01/21 05:53:10;;;;;;;66.18;24.35;;;-0.60;99.90;;;;;;4756696;30;20059;-73
2023/01/21 05:55:36;;;;;;;74.30;23.40;;;-0.60;99.90;;;;;;4757029;30;20044;-72
2023/01/21 05:58:03;;;;;;;70.43;24.25;;;-0.60;99.90;;;;;;4756779;30;20117;-72
2023/01/21 06:00:49;;;;;;;70.45;23.20;;;-0.70;99.90;;;;;;4756744;30;20556;-73
2023/01/21 06:03:15;;;;;;;65.70;22.75;;;-0.70;99.90;;;;;;4772572;30;20059;-72
2023/01/21 06:05:44;;;;;;;61.55;21.65;;;-0.70;99.90;;;;;;4756568;30;20057;-72
2023/01/21 06:08:12;;;;;;;68.85;22.40;;;-0.50;99.90;;;;;;4756854;30;20125;-72
2023/01/21 06:10:37;;;;;;;61.00;21.52;;;-0.80;99.90;;;;;;4756752;30;20066;-72
2023/01/21 06:13:03;;;;;;;69.75;21.67;;;-0.70;99.90;;;;;;4756532;30;20055;-72
2023/01/21 06:15:31;;;;;;;67.78;23.83;;;-0.80;99.90;;;;;;4756353;30;20101;-72
2023/01/21 06:17:57;;;;;;;67.50;23.90;;;-0.70;99.90;;;;;;4756283;30;20504;-73
2023/01/21 06:20:30;;;;;;;57.75;21.02;;;-0.80;99.90;;;;;;4756351;30;20052;-72
2023/01/21 06:22:57;;;;;;;67.88;23.02;;;-0.80;99.90;;;;;;4772394;30;20104;-72
2023/01/21 06:25:24;;;;;;;61.97;22.60;;;-1.00;99.90;;;;;;4756242;30;20043;-72
2023/01/21 06:27:53;;;;;;;66.05;24.38;;;-0.90;99.90;;;;;;4756405;30;20059;-72
2023/01/21 06:30:19;;;;;;;60.38;22.55;;;-0.90;99.90;;;;;;4756365;30;20108;-73
2023/01/21 06:32:44;;;;;;;64.05;23.10;;;-0.90;99.90;;;;;;4756136;30;20056;-72
2023/01/21 06:35:13;;;;;;;61.65;21.73;;;-1.10;99.90;;;;;;4756146;30;20101;-72
2023/01/21 06:37:38;;;;;;;60.97;23.17;;;-1.20;99.90;;;;;;4755436;30;20051;-72
2023/01/21 06:40:06;;;;;;;62.65;23.85;;;-1.00;99.90;;;;;;4755738;30;20393;-72
2023/01/21 06:42:31;;;;;;;69.90;25.20;;;-1.00;99.90;;;;;;4755894;30;20067;-72
2023/01/21 06:44:57;;;;;;;61.53;22.65;;;-1.20;99.90;;;;;;4756033;30;20043;-72
2023/01/21 06:47:23;;;;;;;54.30;20.38;;;-1.10;99.90;;;;;;4756117;30;20514;-72
2023/01/21 06:49:48;;;;;;;60.70;23.98;;;-1.10;99.90;;;;;;4755845;30;20045;-72
2023/01/21 06:52:14;;;;;;;63.33;24.02;;;-1.10;99.90;;;;;;4755853;30;20055;-72
2023/01/21 06:54:40;;;;;;;64.30;22.63;;;-1.20;99.90;;;;;;4756109;30;20044;-72
2023/01/21 06:57:05;;;;;;;66.63;23.52;;;-1.20;99.90;;;;;;4755633;30;20413;-72
2023/01/21 06:59:31;;;;;;;67.75;23.27;;;-1.10;99.90;;;;;;4755594;30;20101;-72
2023/01/21 07:01:57;;;;;;;71.40;24.13;;;-1.30;99.90;;;;;;4755875;30;20134;-72
2023/01/21 07:04:27;;;;;;;67.15;24.17;;;-1.20;99.90;;;;;;4755446;30;20067;-72
2023/01/21 07:06:52;;;;;;;65.40;23.65;;;-1.20;99.90;;;;;;4755388;30;20105;-72
2023/01/21 07:09:19;;;;;;;68.70;24.63;;;-1.30;99.90;;;;;;4771350;30;20052;-72
2023/01/21 07:11:44;;;;;;;70.70;23.95;;;-1.30;99.90;;;;;;4755541;30;20481;-72
2023/01/21 07:14:10;;;;;;;63.17;24.20;;;-1.20;99.90;;;;;;4755403;30;20056;-72
2023/01/21 07:16:36;;;;;;;72.82;24.80;;;-1.10;99.90;;;;;;4755614;30;20058;-72
2023/01/21 07:19:02;;;;;;;66.07;24.58;;;-1.20;99.90;;;;;;4771402;30;20462;-72
2023/01/21 07:21:28;;;;;;;64.18;22.63;;;-1.10;99.90;;;;;;4771261;30;20081;-72
2023/01/21 07:23:54;;;;;;;74.60;26.60;;;-1.20;99.90;;;;;;4755032;30;20438;-72
2023/01/21 07:26:20;;;;;;;72.00;24.85;;;-1.00;99.90;;;;;;4754846;30;20071;-73
2023/01/21 07:28:46;;;;;;;87.82;28.45;;;-1.10;99.90;;;;;;4754725;30;20052;-73
2023/01/21 07:31:14;;;;;;;74.35;26.08;;;-1.20;99.90;;;;;;4754001;30;20132;-73
2023/01/21 07:33:40;;;;;;;77.57;27.38;;;-1.20;99.90;;;;;;4753934;30;20516;-73
2023/01/21 07:36:06;;;;;;;70.88;26.42;;;-1.10;99.90;;;;;;4753469;30;20062;-72
2023/01/21 07:38:32;;;;;;;75.18;26.38;;;-1.00;99.90;;;;;;4753990;30;20056;-73
2023/01/21 07:40:58;;;;;;;80.82;29.60;;;-0.90;99.90;;;;;;4770666;30;20067;-73
2023/01/21 07:43:26;;;;;;;79.05;27.52;;;-1.10;99.90;;;;;;4754855;30;20052;-73
2023/01/21 07:45:51;;;;;;;81.30;28.80;;;-1.00;99.90;;;;;;4770760;30;20066;-72
2023/01/21 07:48:17;;;;;;;77.10;27.90;;;-0.80;99.90;;;;;;4754773;30;20048;-73
2023/01/21 07:50:43;;;;;;;77.72;28.02;;;-0.80;99.90;;;;;;4754752;30;20059;-73
2023/01/21 07:53:10;;;;;;;71.82;26.25;;;-0.80;99.90;;;;;;4754642;30;20060;-73
2023/01/21 07:55:36;;;;;;;79.95;29.58;;;-0.80;99.90;;;;;;4754877;30;20054;-73
2023/01/21 07:58:02;;;;;;;76.47;26.55;;;-0.90;99.90;;;;;;4754882;30;20063;-72
2023/01/21 08:00:28;;;;;;;75.60;27.10;;;-0.80;99.90;;;;;;4754820;30;20056;-73
2023/01/21 08:02:54;;;;;;;67.57;25.13;;;-0.70;99.90;;;;;;4754581;30;20058;-73
2023/01/21 08:05:20;;;;;;;68.63;24.13;;;-0.60;99.90;;;;;;4754383;30;20056;-72
2023/01/21 08:07:46;;;;;;;78.57;25.10;;;-0.70;99.90;;;;;;4754803;30;20070;-73
2023/01/21 08:10:12;;;;;;;74.43;26.20;;;-0.70;99.90;;;;;;4748646;30;20524;-72
2023/01/21 08:12:40;;;;;;;74.32;27.75;;;-0.50;99.90;;;;;;4737811;30;20110;-72
2023/01/21 08:15:07;;;;;;;78.20;25.77;;;-0.50;99.90;;;;;;4736608;30;20048;-72
2023/01/21 08:17:32;;;;;;;75.55;25.17;;;-0.30;99.90;;;;;;4736602;30;20131;-73
2023/01/21 08:19:58;;;;;;;70.05;26.35;;;-0.40;99.90;;;;;;4736889;30;20143;-72
2023/01/21 08:22:26;;;;;;;69.80;26.98;;;-0.30;99.90;;;;;;4736432;30;20405;-72
2023/01/21 08:24:52;;;;;;;76.78;26.67;;;-0.40;99.90;;;;;;4736440;30;20105;-72
2023/01/21 08:27:18;;;;;;;82.03;26.30;;;-0.30;99.90;;;;;;4736633;30;20141;-71
2023/01/21 08:29:43;;;;;;;73.30;26.50;;;-0.30;99.90;;;;;;4752390;30;20067;-72
2023/01/21 08:32:09;;;;;;;72.18;25.70;;;-0.40;99.90;;;;;;4736456;30;20060;-72
2023/01/21 08:34:35;;;;;;;72.68;26.00;;;-0.20;99.90;;;;;;4736425;30;20060;-72
2023/01/21 08:37:00;;;;;;;70.68;25.80;;;-0.20;99.90;;;;;;4736342;30;20048;-72
2023/01/21 08:39:26;;;;;;;77.70;26.17;;;-0.30;99.90;;;;;;4736516;30;20064;-72
2023/01/21 08:41:51;;;;;;;79.22;27.23;;;-0.30;99.90;;;;;;4750986;30;20052;-71
2023/01/21 08:44:17;;;;;;;76.35;27.23;;;0.00;99.90;;;;;;4736813;30;20064;-71
2023/01/21 08:46:43;;;;;;;81.75;27.73;;;0.00;99.90;;;;;;4752155;30;20060;-71
2023/01/21 08:49:08;;;;;;;76.03;28.40;;;0.10;99.90;;;;;;4736357;30;20084;-71
2023/01/21 08:51:34;;;;;;;78.13;26.50;;;0.20;99.90;;;;;;4736278;30;20052;-72
2023/01/21 08:54:00;;;;;;;75.18;26.85;;;0.20;99.90;;;;;;4752253;30;20081;-72
2023/01/21 08:56:25;;;;;;;77.07;29.65;;;0.40;99.90;;;;;;4752176;30;20059;-72
2023/01/21 08:58:56;;;;;;;82.72;28.02;;;0.30;99.90;;;;;;4736583;30;20059;-72
2023/01/21 09:01:23;;;;;;;86.78;29.77;;;0.50;99.90;;;;;;4738736;30;20491;-73
2023/01/21 09:03:57;;;;;;;91.65;35.97;;;0.50;99.90;;;;;;4751698;30;20059;-72
2023/01/21 09:06:24;;;;;;;86.82;35.30;;;0.80;99.90;;;;;;4757147;30;20051;-72
2023/01/21 09:08:50;;;;;;;84.30;30.77;;;0.90;99.90;;;;;;4757360;30;20056;-72
2023/01/21 09:11:16;;;;;;;80.95;28.95;;;1.00;99.90;;;;;;4757104;30;20122;-72
2023/01/21 09:13:43;;;;;;;73.75;25.80;;;1.10;99.90;;;;;;4757303;30;20055;-72
2023/01/21 09:16:18;;;;;;;82.30;27.58;;;1.10;99.90;;;;;;4756958;30;20063;-73
2023/01/21 09:18:44;;;;;;;88.43;28.63;;;1.20;99.90;;;;;;4756950;30;20073;-72
2023/01/21 09:21:13;;;;;;;80.70;28.33;;;1.40;99.90;;;;;;4757243;30;20055;-74
2023/01/21 09:23:39;;;;;;;86.10;28.23;;;1.70;99.90;;;;;;4756848;30;20093;-72
2023/01/21 09:26:05;;;;;;;77.32;26.25;;;1.70;99.90;;;;;;4756813;30;20052;-72
2023/01/21 09:28:33;;;;;;;84.18;28.05;;;1.70;99.90;;;;;;4756817;30;20185;-73
2023/01/21 09:31:02;;;;;;;79.38;25.70;;;1.90;99.90;;;;;;4756932;30;20051;-73
2023/01/21 09:33:29;;;;;;;72.47;25.08;;;2.10;99.90;;;;;;4756636;30;20523;-73
2023/01/21 09:35:57;;;;;;;78.20;24.85;;;2.10;99.90;;;;;;4756737;30;20066;-73
2023/01/21 09:38:24;;;;;;;74.70;26.77;;;2.20;99.90;;;;;;4756577;30;20048;-73
2023/01/21 09:40:50;;;;;;;73.20;26.40;;;2.40;99.90;;;;;;4753491;30;20072;-72
2023/01/21 09:43:26;;;;;;;65.65;24.77;;;2.30;99.90;;;;;;4753451;30;20101;-73
2023/01/21 09:45:56;;;;;;;78.60;25.25;;;2.40;99.90;;;;;;4753460;30;20066;-73
2023/01/21 09:48:36;;;;;;;75.10;26.65;;;2.90;99.90;;;;;;4753576;30;20497;-73
2023/01/21 09:51:10;;;;;;;83.07;26.20;;;2.90;99.90;;;;;;4753641;30;20056;-73
2023/01/21 09:53:52;;;;;;;86.93;26.55;;;3.30;99.90;;;;;;4753261;30;20493;-73
2023/01/21 09:56:26;;;;;;;76.90;24.92;;;3.40;99.90;;;;;;4753415;30;20064;-73
2023/01/21 09:59:22;;;;;;;62.70;23.40;;;3.70;99.90;;;;;;4753168;30;20047;-73
2023/01/21 10:01:50;;;;;;;52.03;18.85;;;3.80;99.90;;;;;;4753441;30;20060;-72
2023/01/21 10:04:32;;;;;;;48.53;17.08;;;3.70;99.90;;;;;;4753015;30;20482;-73
2023/01/21 10:07:31;;;;;;;38.33;15.70;;;3.80;99.90;;;;;;4752955;30;20048;-72
2023/01/21 10:10:16;;;;;;;43.75;16.60;;;4.00;99.90;;;;;;4753281;30;20071;-73
2023/01/21 10:13:06;;;;;;;35.45;14.52;;;4.30;99.90;;;;;;4738347;30;20068;-72
2023/01/21 10:15:52;;;;;;;30.63;13.52;;;4.30;99.90;;;;;;4752842;30;20102;-72
2023/01/21 10:18:25;;;;;;;27.75;13.05;;;4.40;99.90;;;;;;4753300;30;20084;-73
2023/01/21 10:20:55;;;;;;;;;;;4.70;99.90;;;;;;4753496;30;20062;-72
2023/01/21 10:23:33;;;;;;;28.73;11.20;;;4.60;99.90;;;;;;4753147;30;19940;-73
2023/01/21 10:26:08;;;;;;;25.02;11.25;;;4.70;99.90;;;;;;4752731;30;20048;-73
2023/01/21 10:28:38;;;;;;;26.85;11.10;;;4.60;99.90;;;;;;4752838;30;20493;-73
2023/01/21 10:31:15;;;;;;;30.63;13.93;;;4.60;99.90;;;;;;4752773;30;20556;-73
2023/01/21 10:33:40;;;;;;;26.20;12.00;;;4.70;99.90;;;;;;4753036;30;20068;-73
2023/01/21 10:36:11;;;;;;;24.92;11.13;;;4.70;99.90;;;;;;4752805;30;20152;-74
2023/01/21 10:39:14;;;;;;;26.00;11.48;;;4.70;99.90;;;;;;4752566;30;20055;-73
2023/01/21 10:41:55;;;;;;;28.17;11.68;;;4.80;99.90;;;;;;4737804;30;20099;-72
2023/01/21 10:44:57;;;;;;;29.70;12.70;;;4.70;99.90;;;;;;4737864;30;20059;-72
2023/01/21 10:47:31;;;;;;;24.23;11.30;;;4.80;99.90;;;;;;4737955;30;20095;-72
2023/01/21 10:50:02;;;;;;;32.53;12.75;;;4.70;99.90;;;;;;4736144;30;20091;-73
2023/01/21 10:52:34;;;;;;;27.75;11.93;;;4.60;99.90;;;;;;4729727;30;20404;-72
2023/01/21 10:55:32;;;;;;;26.65;10.27;;;4.70;99.90;;;;;;4722432;30;20113;-72
2023/01/21 10:58:10;;;;;;;22.42;12.00;;;4.70;99.90;;;;;;4695148;30;20061;-73
2023/01/21 11:00:43;;;;;;;25.60;10.73;;;4.80;99.90;;;;;;4720175;30;20057;-73
2023/01/21 11:03:22;;;;;;;20.23;9.43;;;4.80;99.90;;;;;;4720393;30;20072;-72
2023/01/21 11:05:48;;;;;;;20.40;9.48;;;4.80;99.90;;;;;;4720060;30;20052;-72
2023/01/21 11:08:22;;;;;;;19.40;9.38;;;4.80;99.90;;;;;;4720143;30;20059;-72
2023/01/21 11:10:52;;;;;;;20.50;8.95;;;4.80;99.90;;;;;;4734474;30;20052;-72
2023/01/21 11:13:17;;;;;;;19.30;10.10;;;4.90;99.90;;;;;;4723107;30;20453;-73
2023/01/21 11:15:53;;;;;;;16.52;8.10;;;4.90;99.90;;;;;;4729074;30;20048;-73
2023/01/21 11:18:31;;;;;;;23.15;9.30;;;5.00;99.90;;;;;;4729355;30;20131;-72
2023/01/21 11:21:02;;;;;;;22.88;8.77;;;4.90;99.90;;;;;;4727178;30;20062;-72
2023/01/21 11:23:30;;;;;;;17.67;7.55;;;5.00;99.90;;;;;;4724113;30;20061;-73
2023/01/21 11:26:02;;;;;;;16.02;8.20;;;5.00;99.90;;;;;;4719510;30;20125;-72
2023/01/21 11:28:31;;;;;;;14.82;7.10;;;5.00;99.90;;;;;;4720049;30;20134;-72
2023/01/21 11:31:28;;;;;;;16.00;7.40;;;5.00;99.90;;;;;;4734415;30;20048;-73
2023/01/21 11:34:02;;;;;;;15.77;7.32;;;5.00;99.90;;;;;;4719856;30;20060;-72
2023/01/21 11:36:28;;;;;;;13.13;6.80;;;5.10;99.90;;;;;;4719865;30;20055;-74
2023/01/21 11:39:08;;;;;;;17.15;7.47;;;5.10;99.90;;;;;;4719891;30;20044;-72
2023/01/21 11:41:34;;;;;;;12.27;6.18;;;5.10;99.90;;;;;;4719819;30;20060;-73
2023/01/21 11:44:14;;;;;;;11.52;5.72;;;5.20;99.90;;;;;;4719718;30;20139;-72
2023/01/21 11:46:40;;;;;;;10.88;6.90;;;5.20;99.90;;;;;;4719436;30;20052;-72
2023/01/21 11:49:19;;;;;;;9.20;5.90;;;5.10;99.90;;;;;;4719411;30;20118;-72
2023/01/21 11:51:49;;;;;;;10.10;5.85;;;5.00;99.90;;;;;;4719385;30;20547;-72
2023/01/21 11:54:22;;;;;;;9.95;5.13;;;5.00;99.90;;;;;;4719700;30;20056;-72
2023/01/21 11:57:00;;;;;;;11.20;5.05;;;5.10;99.90;;;;;;4719283;30;20054;-72
2023/01/21 11:59:49;;;;;;;13.68;5.47;;;5.00;99.90;;;;;;4735232;30;20092;-72
2023/01/21 12:02:28;;;;;;;13.13;6.03;;;5.10;99.90;;;;;;4719316;30;20107;-72
2023/01/21 12:05:00;;;;;;;10.93;6.25;;;5.10;99.90;;;;;;4719365;30;20131;-74
2023/01/21 12:07:32;;;;;;;13.38;7.40;;;5.10;99.90;;;;;;4719455;30;20131;-72
2023/01/21 12:10:18;;;;;;;;;;;5.10;99.90;;;;;;4719508;30;20056;-72
2023/01/21 12:13:15;;;;;;;10.82;5.30;;;5.10;99.90;;;;;;4718548;30;20630;-73
2023/01/21 12:15:52;;;;;;;11.40;6.63;;;5.20;99.90;;;;;;4719664;30;20059;-73
2023/01/21 12:18:49;;;;;;;10.23;5.53;;;5.30;99.90;;;;;;4719544;30;20149;-73
2023/01/21 12:21:37;;;;;;;10.27;5.80;;;5.00;99.90;;;;;;4719321;30;20088;-74
2023/01/21 12:24:21;;;;;;;11.15;5.25;;;4.80;99.90;;;;;;4710129;30;20061;-72
2023/01/21 12:27:01;;;;;;;12.30;6.03;;;4.90;99.90;;;;;;4719200;30;20059;-73
2023/01/21 12:30:19;;;;;;;9.30;4.95;;;5.00;99.90;;;;;;4719506;30;20095;-73
2023/01/21 12:33:07;;;;;;;15.23;7.35;;;5.00;99.90;;;;;;4716731;30;20155;-73
2023/01/21 12:35:54;;;;;;;10.57;4.80;;;5.00;99.90;;;;;;4720560;30;20056;-73
2023/01/21 12:38:35;;;;;;;28.58;12.88;;;5.00;99.90;;;;;;4722758;30;20053;-73
2023/01/21 12:41:19;;;;;;;35.50;15.38;;;5.00;99.90;;;;;;4722603;30;20140;-72
2023/01/21 12:43:50;;;;;;;11.02;6.25;;;4.90;99.90;;;;;;4722768;30;20061;-73
2023/01/21 12:46:28;;;;;;;16.65;9.88;;;4.90;99.90;;;;;;4722606;30;20060;-72
2023/01/21 12:49:26;;;;;;;18.90;9.00;;;4.80;99.90;;;;;;4722563;30;20158;-73
2023/01/21 12:51:58;;;;;;;14.10;6.10;;;4.70;99.90;;;;;;4722171;30;20097;-73
2023/01/21 12:54:53;;;;;;;13.43;6.88;;;4.80;99.90;;;;;;4738242;30;20063;-73
2023/01/21 12:57:26;;;;;;;14.38;8.25;;;4.70;99.90;;;;;;4721449;30;20068;-73